Архив погоды в Верхнем Баскунчаке

Метеограмма Верхний Баскунчак
Вторник, 14 Августа
Время местн. Темп Ветер Видим Явления Облачность нижн/средн/верх Атм. давл. Влжн Точка росы ВНГО R Сост. почвы Tg s
Напр Скр Прв ур.ст ур.м изм
15:00 +31.3° З,С-З 2 - 20 км - переменная облачность 757 760 -0.6 27% +10.2° 1.5 км - - - -
12:00 +30.2° З 3 - 20 км - ясно 757 760 -0.1 36% +13.6° более 2.5 км - - - -
09:00 +25° С,С-З 2 - 20 км - ясно 758 761 +0.5 52% +14.6° более 2.5 км - - - -
06:00 +18.4° Ю,Ю-З 1 - 20 км - ясно 757 760 +0.5 79% +14.7° более 2.5 км - Влажная (без луж) - -
03:00 +17.3° Ю,Ю-З 1 - 4 км дымка {гроза, ливневые осадки} переменная облачность 757 760 -0.6 85% +14.8° более 2.5 км - - - -
00:00 +17.8° Ю-З 2 - 4 км умеренный или сильный ливневый дождь {гроза} облачно 757 760 +0.1 89% +15.9° 1 км - - - -
Понедельник, 13 Августа
Время местн. Темп Ветер Видим Явления Облачность нижн/средн/верх Атм. давл. Влжн Точка росы ВНГО R Сост. почвы Tg s
Напр Скр Прв ур.ст ур.м изм
21:00 +20.8° С-З 3 - 20 км - преимущественно облачно 757 760 +0.8 69% +14.8° 1 км - - - -
18:00 +25.6° С,С-В 2 - 20 км - преимущественно облачно 756 759 -0.4 37% +9.9° 1 км - - - -
15:00 +25.7° З,Ю-З 1 - 20 км облака рассеиваются {ливневые осадки} облачно с прояснениями 757 760 -0.9 41% +11.3° 1 км - - - -
12:00 +22.8° С,С-З 1 - 20 км ливневый дождь облачно 758 761 +0.3 59% +14.5° 1 км - - - -
09:00 +22.1° З 3 - 20 км - облачно 757 760 -0.5 50% +11.3° 1 км - - - -
06:00 +19.4° Ю 2 - 20 км - преимущественно облачно 758 761 +1.1 58% +10.8° 1 км - Сухая (без трещин) - -
03:00 +20° Ю,Ю-З 2 - 20 км - переменная облачность 757 760 -0.5 40% +6° 1 км - - - -
00:00 +22° Ю-З 2 - 20 км - облачно с прояснениями 757 760 -0.5 33% +5.1° более 2.5 км - - - -
Воскресенье, 12 Августа
Время местн. Темп Ветер Видим Явления Облачность нижн/средн/верх Атм. давл. Влжн Точка росы ВНГО R Сост. почвы Tg s
Напр Скр Прв ур.ст ур.м изм
21:00 +24.1° З 1 - 20 км - облачно с прояснениями 758 761 -0.1 26% +3.5° - - - - -
18:00 +29.2° Ю 4 - 20 км - облачно с прояснениями 758 761 -0.6 18% +2.4° - - - - -
15:00 +32.7° В,Ю-В 2 - 20 км - ясно 758 761 -1.4 18% +5.1° более 2.5 км - - - -
12:00 +31.2° В 2 - 20 км - ясно 760 763 -1.1 20% +5.9° более 2.5 км - - - -
09:00 +27.9° З 1 - 20 км - ясно 761 764 -0.5 22% +4.3° более 2.5 км - - - -
06:00 +18.3° З 2 - 20 км - ясно 761 765 -0.5 44% +5.7° более 2.5 км - Сухая (без трещин) - -
03:00 +16.3° З 1 - 20 км - ясно 762 765 -0.7 48% +5.4° более 2.5 км - - - -
00:00 +18.7° Ю-З 2 - 20 км - ясно 763 766 -0.4 39% +4.3° более 2.5 км - - - -
Суббота, 11 Августа
Время местн. Темп Ветер Видим Явления Облачность нижн/средн/верх Атм. давл. Влжн Точка росы ВНГО R Сост. почвы Tg s
Напр Скр Прв ур.ст ур.м изм
21:00 +21.7° Ю 2 - 20 км - ясно 763 766 +0.3 29% +2.7° более 2.5 км - - - -
18:00 +28.1° Ю 1 - 20 км - ясно 763 766 -1.1 17% +0.9° более 2.5 км - - - -
15:00 +28.7° С-В 2 - 20 км - ясно 764 767 -1.6 17% +1.5° более 2.5 км - - - -
12:00 +26.8° С,С-В 2 - 20 км - ясно 765 768 -1.1 22% +3.5° более 2.5 км - - - -